sensor_id;sensor_type;location;lat;lon;timestamp;P1;durP1;ratioP1;P2;durP2;ratioP2
37305;SDS011;23193;42.656;21.170;2022-07-29T00:02:00;9.85;;;5.78;;
37305;SDS011;23193;42.656;21.170;2022-07-29T00:04:26;9.50;;;5.82;;
37305;SDS011;23193;42.656;21.170;2022-07-29T00:06:52;11.80;;;5.75;;
37305;SDS011;23193;42.656;21.170;2022-07-29T00:09:18;10.18;;;6.28;;
37305;SDS011;23193;42.656;21.170;2022-07-29T00:11:44;8.27;;;6.07;;
37305;SDS011;23193;42.656;21.170;2022-07-29T00:14:10;9.65;;;6.47;;
37305;SDS011;23193;42.656;21.170;2022-07-29T00:16:37;10.68;;;6.53;;
37305;SDS011;23193;42.656;21.170;2022-07-29T00:19:03;10.45;;;7.05;;
37305;SDS011;23193;42.656;21.170;2022-07-29T00:21:29;8.07;;;6.28;;
37305;SDS011;23193;42.656;21.170;2022-07-29T00:23:55;7.18;;;6.32;;
37305;SDS011;23193;42.656;21.170;2022-07-29T00:26:21;17.27;;;6.57;;
37305;SDS011;23193;42.656;21.170;2022-07-29T00:28:47;11.00;;;6.68;;
37305;SDS011;23193;42.656;21.170;2022-07-29T00:31:14;7.57;;;5.85;;
37305;SDS011;23193;42.656;21.170;2022-07-29T00:33:40;10.52;;;6.80;;
37305;SDS011;23193;42.656;21.170;2022-07-29T00:36:06;9.02;;;6.72;;
37305;SDS011;23193;42.656;21.170;2022-07-29T00:38:32;7.63;;;5.82;;
37305;SDS011;23193;42.656;21.170;2022-07-29T00:40:58;8.98;;;6.47;;
37305;SDS011;23193;42.656;21.170;2022-07-29T00:43:24;7.97;;;5.57;;
37305;SDS011;23193;42.656;21.170;2022-07-29T00:45:50;17.70;;;6.63;;
37305;SDS011;23193;42.656;21.170;2022-07-29T00:48:16;6.95;;;5.95;;
37305;SDS011;23193;42.656;21.170;2022-07-29T00:50:42;8.77;;;6.53;;
37305;SDS011;23193;42.656;21.170;2022-07-29T00:53:08;13.90;;;6.88;;
37305;SDS011;23193;42.656;21.170;2022-07-29T00:55:37;18.13;;;7.30;;
37305;SDS011;23193;42.656;21.170;2022-07-29T00:58:03;12.10;;;8.05;;
37305;SDS011;23193;42.656;21.170;2022-07-29T01:00:29;9.02;;;6.25;;
37305;SDS011;23193;42.656;21.170;2022-07-29T01:02:55;10.48;;;6.18;;
37305;SDS011;23193;42.656;21.170;2022-07-29T01:05:23;9.93;;;6.60;;
37305;SDS011;23193;42.656;21.170;2022-07-29T01:07:51;8.43;;;6.80;;
37305;SDS011;23193;42.656;21.170;2022-07-29T01:10:18;7.22;;;6.15;;
37305;SDS011;23193;42.656;21.170;2022-07-29T01:12:46;9.25;;;6.65;;
37305;SDS011;23193;42.656;21.170;2022-07-29T01:15:13;9.48;;;7.10;;
37305;SDS011;23193;42.656;21.170;2022-07-29T01:17:43;12.20;;;6.50;;
37305;SDS011;23193;42.656;21.170;2022-07-29T01:25:14;13.27;;;7.97;;
37305;SDS011;23193;42.656;21.170;2022-07-29T01:30:13;10.00;;;7.18;;
37305;SDS011;23193;42.656;21.170;2022-07-29T01:32:39;10.10;;;8.02;;
37305;SDS011;23193;42.656;21.170;2022-07-29T01:40:31;14.25;;;8.45;;
37305;SDS011;23193;42.656;21.170;2022-07-29T01:43:01;12.45;;;8.15;;
37305;SDS011;23193;42.656;21.170;2022-07-29T01:45:32;17.38;;;7.88;;
37305;SDS011;23193;42.656;21.170;2022-07-29T01:48:02;11.82;;;8.85;;
37305;SDS011;23193;42.656;21.170;2022-07-29T01:50:38;12.73;;;8.50;;
37305;SDS011;23193;42.656;21.170;2022-07-29T01:53:06;31.05;;;8.88;;
37305;SDS011;23193;42.656;21.170;2022-07-29T01:55:35;16.27;;;8.40;;
37305;SDS011;23193;42.656;21.170;2022-07-29T01:58:03;14.05;;;8.70;;
37305;SDS011;23193;42.656;21.170;2022-07-29T02:00:31;11.38;;;7.00;;
37305;SDS011;23193;42.656;21.170;2022-07-29T02:02:58;12.57;;;9.00;;
37305;SDS011;23193;42.656;21.170;2022-07-29T02:05:25;11.45;;;8.20;;
37305;SDS011;23193;42.656;21.170;2022-07-29T02:07:52;14.43;;;7.32;;
37305;SDS011;23193;42.656;21.170;2022-07-29T02:10:19;11.70;;;6.88;;
37305;SDS011;23193;42.656;21.170;2022-07-29T02:12:47;9.55;;;7.63;;
37305;SDS011;23193;42.656;21.170;2022-07-29T02:15:14;12.68;;;8.20;;
37305;SDS011;23193;42.656;21.170;2022-07-29T02:17:42;10.90;;;8.15;;
37305;SDS011;23193;42.656;21.170;2022-07-29T02:20:09;14.30;;;9.10;;
37305;SDS011;23193;42.656;21.170;2022-07-29T02:22:37;10.70;;;8.00;;
37305;SDS011;23193;42.656;21.170;2022-07-29T02:25:03;9.32;;;7.95;;
37305;SDS011;23193;42.656;21.170;2022-07-29T02:27:30;10.63;;;8.02;;
37305;SDS011;23193;42.656;21.170;2022-07-29T02:29:56;13.40;;;7.88;;
37305;SDS011;23193;42.656;21.170;2022-07-29T02:32:23;14.80;;;8.35;;
37305;SDS011;23193;42.656;21.170;2022-07-29T02:34:50;14.63;;;8.15;;
37305;SDS011;23193;42.656;21.170;2022-07-29T02:37:16;11.00;;;8.10;;
37305;SDS011;23193;42.656;21.170;2022-07-29T02:39:43;10.65;;;8.30;;
37305;SDS011;23193;42.656;21.170;2022-07-29T02:42:11;10.10;;;8.02;;
37305;SDS011;23193;42.656;21.170;2022-07-29T02:44:38;10.43;;;8.25;;
37305;SDS011;23193;42.656;21.170;2022-07-29T02:47:21;10.85;;;8.50;;
37305;SDS011;23193;42.656;21.170;2022-07-29T02:49:59;12.15;;;9.07;;
37305;SDS011;23193;42.656;21.170;2022-07-29T02:55:03;15.85;;;8.65;;
37305;SDS011;23193;42.656;21.170;2022-07-29T03:00:01;11.70;;;8.65;;
37305;SDS011;23193;42.656;21.170;2022-07-29T03:02:29;12.45;;;8.60;;
37305;SDS011;23193;42.656;21.170;2022-07-29T03:04:57;14.40;;;8.77;;
37305;SDS011;23193;42.656;21.170;2022-07-29T03:07:24;10.10;;;8.48;;
37305;SDS011;23193;42.656;21.170;2022-07-29T03:09:50;18.67;;;7.95;;
37305;SDS011;23193;42.656;21.170;2022-07-29T03:12:17;16.42;;;8.05;;
37305;SDS011;23193;42.656;21.170;2022-07-29T03:14:43;12.30;;;9.32;;
37305;SDS011;23193;42.656;21.170;2022-07-29T03:17:10;11.00;;;8.18;;
37305;SDS011;23193;42.656;21.170;2022-07-29T03:19:36;10.75;;;8.10;;
37305;SDS011;23193;42.656;21.170;2022-07-29T03:22:02;11.55;;;7.88;;
37305;SDS011;23193;42.656;21.170;2022-07-29T03:24:30;9.30;;;7.70;;
37305;SDS011;23193;42.656;21.170;2022-07-29T03:26:56;10.13;;;8.38;;
37305;SDS011;23193;42.656;21.170;2022-07-29T03:29:23;19.63;;;8.23;;
37305;SDS011;23193;42.656;21.170;2022-07-29T03:31:49;9.23;;;7.72;;
37305;SDS011;23193;42.656;21.170;2022-07-29T03:34:15;11.20;;;8.23;;
37305;SDS011;23193;42.656;21.170;2022-07-29T03:36:41;12.93;;;7.85;;
37305;SDS011;23193;42.656;21.170;2022-07-29T03:39:07;10.43;;;7.53;;
37305;SDS011;23193;42.656;21.170;2022-07-29T03:41:34;10.90;;;7.32;;
37305;SDS011;23193;42.656;21.170;2022-07-29T03:44:00;12.65;;;8.18;;
37305;SDS011;23193;42.656;21.170;2022-07-29T03:46:28;11.20;;;8.07;;
37305;SDS011;23193;42.656;21.170;2022-07-29T03:48:55;12.10;;;8.23;;
37305;SDS011;23193;42.656;21.170;2022-07-29T03:51:22;13.93;;;8.98;;
37305;SDS011;23193;42.656;21.170;2022-07-29T03:53:48;14.05;;;11.30;;
37305;SDS011;23193;42.656;21.170;2022-07-29T03:56:15;22.63;;;15.45;;
37305;SDS011;23193;42.656;21.170;2022-07-29T03:58:41;28.00;;;18.05;;
37305;SDS011;23193;42.656;21.170;2022-07-29T04:01:08;32.42;;;19.63;;
37305;SDS011;23193;42.656;21.170;2022-07-29T04:03:34;30.73;;;19.23;;
37305;SDS011;23193;42.656;21.170;2022-07-29T04:06:05;26.77;;;18.02;;
37305;SDS011;23193;42.656;21.170;2022-07-29T04:08:31;30.83;;;17.50;;
37305;SDS011;23193;42.656;21.170;2022-07-29T04:10:58;22.90;;;15.30;;
37305;SDS011;23193;42.656;21.170;2022-07-29T04:13:24;24.42;;;16.25;;
37305;SDS011;23193;42.656;21.170;2022-07-29T04:15:50;23.73;;;13.93;;
37305;SDS011;23193;42.656;21.170;2022-07-29T04:18:16;19.63;;;12.55;;
37305;SDS011;23193;42.656;21.170;2022-07-29T04:20:42;19.10;;;10.23;;
37305;SDS011;23193;42.656;21.170;2022-07-29T04:23:08;13.38;;;10.57;;
37305;SDS011;23193;42.656;21.170;2022-07-29T04:25:37;18.20;;;11.20;;
37305;SDS011;23193;42.656;21.170;2022-07-29T04:28:04;16.92;;;10.20;;
37305;SDS011;23193;42.656;21.170;2022-07-29T04:30:31;15.15;;;9.38;;
37305;SDS011;23193;42.656;21.170;2022-07-29T04:32:57;12.10;;;8.32;;
37305;SDS011;23193;42.656;21.170;2022-07-29T04:35:23;13.13;;;8.80;;
37305;SDS011;23193;42.656;21.170;2022-07-29T04:37:49;14.90;;;9.77;;
37305;SDS011;23193;42.656;21.170;2022-07-29T04:40:15;14.27;;;9.95;;
37305;SDS011;23193;42.656;21.170;2022-07-29T04:42:41;13.48;;;10.15;;
37305;SDS011;23193;42.656;21.170;2022-07-29T04:45:07;15.52;;;10.77;;
37305;SDS011;23193;42.656;21.170;2022-07-29T04:47:34;15.45;;;11.00;;
37305;SDS011;23193;42.656;21.170;2022-07-29T04:50:00;16.67;;;9.77;;
37305;SDS011;23193;42.656;21.170;2022-07-29T04:52:26;16.85;;;9.88;;
37305;SDS011;23193;42.656;21.170;2022-07-29T04:54:52;18.50;;;10.25;;
37305;SDS011;23193;42.656;21.170;2022-07-29T04:57:18;17.50;;;9.32;;
37305;SDS011;23193;42.656;21.170;2022-07-29T04:59:44;12.45;;;9.00;;
37305;SDS011;23193;42.656;21.170;2022-07-29T05:02:10;16.75;;;9.18;;
37305;SDS011;23193;42.656;21.170;2022-07-29T05:04:36;14.23;;;9.13;;
37305;SDS011;23193;42.656;21.170;2022-07-29T05:07:02;16.05;;;9.98;;
37305;SDS011;23193;42.656;21.170;2022-07-29T05:09:28;15.60;;;9.45;;
37305;SDS011;23193;42.656;21.170;2022-07-29T05:11:54;12.30;;;8.60;;
37305;SDS011;23193;42.656;21.170;2022-07-29T05:14:20;12.65;;;9.15;;
37305;SDS011;23193;42.656;21.170;2022-07-29T05:16:46;13.75;;;9.35;;
37305;SDS011;23193;42.656;21.170;2022-07-29T05:19:13;10.63;;;8.57;;
37305;SDS011;23193;42.656;21.170;2022-07-29T05:21:39;14.70;;;9.65;;
37305;SDS011;23193;42.656;21.170;2022-07-29T05:24:05;14.10;;;9.50;;
37305;SDS011;23193;42.656;21.170;2022-07-29T05:26:31;14.68;;;9.50;;
37305;SDS011;23193;42.656;21.170;2022-07-29T05:28:57;17.30;;;8.90;;
37305;SDS011;23193;42.656;21.170;2022-07-29T05:31:23;17.58;;;10.10;;
37305;SDS011;23193;42.656;21.170;2022-07-29T05:33:49;13.43;;;9.45;;
37305;SDS011;23193;42.656;21.170;2022-07-29T05:36:15;13.35;;;9.48;;
37305;SDS011;23193;42.656;21.170;2022-07-29T05:38:41;14.85;;;8.40;;
37305;SDS011;23193;42.656;21.170;2022-07-29T05:41:07;18.40;;;10.35;;
37305;SDS011;23193;42.656;21.170;2022-07-29T05:43:33;19.73;;;9.68;;
37305;SDS011;23193;42.656;21.170;2022-07-29T05:45:59;12.98;;;9.82;;
37305;SDS011;23193;42.656;21.170;2022-07-29T05:48:26;15.20;;;8.95;;
37305;SDS011;23193;42.656;21.170;2022-07-29T05:50:52;14.30;;;9.25;;
37305;SDS011;23193;42.656;21.170;2022-07-29T05:53:18;16.30;;;10.18;;
37305;SDS011;23193;42.656;21.170;2022-07-29T05:55:44;15.40;;;9.27;;
37305;SDS011;23193;42.656;21.170;2022-07-29T05:58:10;16.45;;;9.98;;
37305;SDS011;23193;42.656;21.170;2022-07-29T06:00:37;19.15;;;10.68;;
37305;SDS011;23193;42.656;21.170;2022-07-29T06:03:03;16.27;;;10.00;;
37305;SDS011;23193;42.656;21.170;2022-07-29T06:05:29;18.92;;;10.25;;
37305;SDS011;23193;42.656;21.170;2022-07-29T06:07:55;16.38;;;10.57;;
37305;SDS011;23193;42.656;21.170;2022-07-29T06:10:21;21.55;;;10.57;;
37305;SDS011;23193;42.656;21.170;2022-07-29T06:12:47;16.38;;;9.65;;
37305;SDS011;23193;42.656;21.170;2022-07-29T06:15:13;24.13;;;10.70;;
37305;SDS011;23193;42.656;21.170;2022-07-29T06:17:40;20.83;;;10.05;;
37305;SDS011;23193;42.656;21.170;2022-07-29T06:20:06;22.33;;;11.30;;
37305;SDS011;23193;42.656;21.170;2022-07-29T06:22:32;22.17;;;10.45;;
37305;SDS011;23193;42.656;21.170;2022-07-29T06:24:58;22.23;;;9.63;;
37305;SDS011;23193;42.656;21.170;2022-07-29T06:27:24;14.20;;;9.07;;
37305;SDS011;23193;42.656;21.170;2022-07-29T06:29:50;16.67;;;9.77;;
37305;SDS011;23193;42.656;21.170;2022-07-29T06:32:16;16.73;;;8.43;;
37305;SDS011;23193;42.656;21.170;2022-07-29T06:34:44;13.18;;;8.88;;
37305;SDS011;23193;42.656;21.170;2022-07-29T06:37:10;15.45;;;9.40;;
37305;SDS011;23193;42.656;21.170;2022-07-29T06:39:36;26.15;;;10.13;;
37305;SDS011;23193;42.656;21.170;2022-07-29T06:42:05;16.30;;;9.30;;
37305;SDS011;23193;42.656;21.170;2022-07-29T06:44:31;13.48;;;8.85;;
37305;SDS011;23193;42.656;21.170;2022-07-29T06:47:00;15.68;;;8.40;;
37305;SDS011;23193;42.656;21.170;2022-07-29T06:49:26;16.48;;;8.85;;
37305;SDS011;23193;42.656;21.170;2022-07-29T06:51:53;14.25;;;8.48;;
37305;SDS011;23193;42.656;21.170;2022-07-29T06:54:19;22.48;;;9.20;;
37305;SDS011;23193;42.656;21.170;2022-07-29T06:56:45;18.20;;;8.82;;
37305;SDS011;23193;42.656;21.170;2022-07-29T06:59:11;20.52;;;9.50;;
37305;SDS011;23193;42.656;21.170;2022-07-29T07:01:40;16.05;;;9.27;;
37305;SDS011;23193;42.656;21.170;2022-07-29T07:04:06;20.58;;;9.90;;
37305;SDS011;23193;42.656;21.170;2022-07-29T07:06:33;18.70;;;9.15;;
37305;SDS011;23193;42.656;21.170;2022-07-29T07:08:59;13.13;;;8.98;;
37305;SDS011;23193;42.656;21.170;2022-07-29T07:11:26;18.25;;;8.30;;
37305;SDS011;23193;42.656;21.170;2022-07-29T07:13:52;12.55;;;8.38;;
37305;SDS011;23193;42.656;21.170;2022-07-29T07:16:18;14.65;;;9.00;;
37305;SDS011;23193;42.656;21.170;2022-07-29T07:18:44;19.60;;;9.65;;
37305;SDS011;23193;42.656;21.170;2022-07-29T07:21:10;14.82;;;9.48;;
37305;SDS011;23193;42.656;21.170;2022-07-29T07:23:37;15.52;;;8.98;;
37305;SDS011;23193;42.656;21.170;2022-07-29T07:26:03;21.85;;;10.32;;
37305;SDS011;23193;42.656;21.170;2022-07-29T07:28:30;25.60;;;10.35;;
37305;SDS011;23193;42.656;21.170;2022-07-29T07:30:56;15.85;;;9.40;;
37305;SDS011;23193;42.656;21.170;2022-07-29T07:33:22;21.30;;;9.88;;
37305;SDS011;23193;42.656;21.170;2022-07-29T07:35:49;16.67;;;9.68;;
37305;SDS011;23193;42.656;21.170;2022-07-29T07:38:15;15.25;;;9.35;;
37305;SDS011;23193;42.656;21.170;2022-07-29T07:40:41;14.68;;;9.13;;
37305;SDS011;23193;42.656;21.170;2022-07-29T07:43:08;17.00;;;9.45;;
37305;SDS011;23193;42.656;21.170;2022-07-29T07:45:34;23.00;;;8.93;;
37305;SDS011;23193;42.656;21.170;2022-07-29T07:48:02;17.35;;;9.02;;
37305;SDS011;23193;42.656;21.170;2022-07-29T07:50:28;19.95;;;9.23;;
37305;SDS011;23193;42.656;21.170;2022-07-29T07:52:54;15.63;;;9.32;;
37305;SDS011;23193;42.656;21.170;2022-07-29T07:55:24;23.33;;;12.63;;
37305;SDS011;23193;42.656;21.170;2022-07-29T07:57:51;15.18;;;9.70;;
37305;SDS011;23193;42.656;21.170;2022-07-29T08:00:17;22.80;;;10.30;;
37305;SDS011;23193;42.656;21.170;2022-07-29T08:02:43;17.25;;;9.23;;
37305;SDS011;23193;42.656;21.170;2022-07-29T08:05:10;22.27;;;9.38;;
37305;SDS011;23193;42.656;21.170;2022-07-29T08:07:38;14.38;;;9.07;;
37305;SDS011;23193;42.656;21.170;2022-07-29T08:10:04;18.70;;;9.40;;
37305;SDS011;23193;42.656;21.170;2022-07-29T08:12:30;16.35;;;8.25;;
37305;SDS011;23193;42.656;21.170;2022-07-29T08:14:56;11.50;;;8.52;;
37305;SDS011;23193;42.656;21.170;2022-07-29T08:17:22;25.38;;;13.38;;
37305;SDS011;23193;42.656;21.170;2022-07-29T08:19:49;17.38;;;8.77;;
37305;SDS011;23193;42.656;21.170;2022-07-29T08:22:15;14.73;;;8.73;;
37305;SDS011;23193;42.656;21.170;2022-07-29T08:24:41;15.30;;;9.85;;
37305;SDS011;23193;42.656;21.170;2022-07-29T08:27:21;21.02;;;9.25;;
37305;SDS011;23193;42.656;21.170;2022-07-29T08:29:47;21.20;;;8.52;;
37305;SDS011;23193;42.656;21.170;2022-07-29T08:32:13;21.92;;;8.32;;
37305;SDS011;23193;42.656;21.170;2022-07-29T08:34:40;15.85;;;8.07;;
37305;SDS011;23193;42.656;21.170;2022-07-29T08:37:06;14.40;;;8.07;;
37305;SDS011;23193;42.656;21.170;2022-07-29T08:39:32;14.00;;;8.55;;
37305;SDS011;23193;42.656;21.170;2022-07-29T08:41:58;13.20;;;8.73;;
37305;SDS011;23193;42.656;21.170;2022-07-29T08:44:24;13.05;;;7.32;;
37305;SDS011;23193;42.656;21.170;2022-07-29T08:46:51;11.68;;;7.50;;
37305;SDS011;23193;42.656;21.170;2022-07-29T08:49:17;15.43;;;8.05;;
37305;SDS011;23193;42.656;21.170;2022-07-29T08:51:43;15.73;;;8.30;;
37305;SDS011;23193;42.656;21.170;2022-07-29T08:54:10;21.70;;;8.75;;
37305;SDS011;23193;42.656;21.170;2022-07-29T08:56:37;11.77;;;8.02;;
37305;SDS011;23193;42.656;21.170;2022-07-29T08:59:04;19.50;;;8.70;;
37305;SDS011;23193;42.656;21.170;2022-07-29T09:01:32;19.27;;;8.25;;
37305;SDS011;23193;42.656;21.170;2022-07-29T09:03:58;16.58;;;7.82;;
37305;SDS011;23193;42.656;21.170;2022-07-29T09:06:26;24.38;;;8.55;;
37305;SDS011;23193;42.656;21.170;2022-07-29T09:08:56;14.13;;;8.15;;
37305;SDS011;23193;42.656;21.170;2022-07-29T09:11:24;16.40;;;8.65;;
37305;SDS011;23193;42.656;21.170;2022-07-29T09:13:50;14.40;;;8.55;;
37305;SDS011;23193;42.656;21.170;2022-07-29T09:16:16;15.07;;;7.57;;
37305;SDS011;23193;42.656;21.170;2022-07-29T09:18:43;11.32;;;7.75;;
37305;SDS011;23193;42.656;21.170;2022-07-29T09:21:10;17.92;;;7.97;;
37305;SDS011;23193;42.656;21.170;2022-07-29T09:24:03;16.25;;;8.35;;
37305;SDS011;23193;42.656;21.170;2022-07-29T09:26:33;12.27;;;8.07;;
37305;SDS011;23193;42.656;21.170;2022-07-29T09:28:59;12.10;;;7.93;;
37305;SDS011;23193;42.656;21.170;2022-07-29T09:31:34;26.05;;;8.43;;
37305;SDS011;23193;42.656;21.170;2022-07-29T09:34:00;10.35;;;7.97;;
37305;SDS011;23193;42.656;21.170;2022-07-29T09:36:26;24.27;;;7.75;;
37305;SDS011;23193;42.656;21.170;2022-07-29T09:39:02;14.32;;;8.25;;
37305;SDS011;23193;42.656;21.170;2022-07-29T09:41:28;14.73;;;8.15;;
37305;SDS011;23193;42.656;21.170;2022-07-29T09:43:55;23.25;;;8.32;;
37305;SDS011;23193;42.656;21.170;2022-07-29T09:46:22;18.65;;;8.32;;
37305;SDS011;23193;42.656;21.170;2022-07-29T09:49:08;18.48;;;8.20;;
37305;SDS011;23193;42.656;21.170;2022-07-29T09:51:35;20.10;;;7.88;;
37305;SDS011;23193;42.656;21.170;2022-07-29T09:54:01;14.43;;;7.70;;
37305;SDS011;23193;42.656;21.170;2022-07-29T09:56:39;12.07;;;7.30;;
37305;SDS011;23193;42.656;21.170;2022-07-29T09:59:06;10.43;;;7.78;;
37305;SDS011;23193;42.656;21.170;2022-07-29T10:01:32;10.93;;;7.68;;
37305;SDS011;23193;42.656;21.170;2022-07-29T10:03:58;15.02;;;7.90;;
37305;SDS011;23193;42.656;21.170;2022-07-29T10:06:24;11.60;;;6.80;;
37305;SDS011;23193;42.656;21.170;2022-07-29T10:08:50;16.67;;;7.45;;
37305;SDS011;23193;42.656;21.170;2022-07-29T10:11:17;12.00;;;6.75;;
37305;SDS011;23193;42.656;21.170;2022-07-29T10:13:44;9.05;;;6.43;;
37305;SDS011;23193;42.656;21.170;2022-07-29T10:16:11;11.90;;;7.00;;
37305;SDS011;23193;42.656;21.170;2022-07-29T10:18:38;11.90;;;6.90;;
37305;SDS011;23193;42.656;21.170;2022-07-29T10:21:04;13.60;;;6.60;;
37305;SDS011;23193;42.656;21.170;2022-07-29T10:23:30;10.82;;;7.15;;
37305;SDS011;23193;42.656;21.170;2022-07-29T10:25:56;14.25;;;6.85;;
37305;SDS011;23193;42.656;21.170;2022-07-29T10:28:22;11.38;;;6.82;;
37305;SDS011;23193;42.656;21.170;2022-07-29T10:30:50;10.73;;;6.85;;
37305;SDS011;23193;42.656;21.170;2022-07-29T10:43:53;13.77;;;6.72;;
37305;SDS011;23193;42.656;21.170;2022-07-29T10:46:20;16.27;;;5.97;;
37305;SDS011;23193;42.656;21.170;2022-07-29T10:54:36;7.50;;;5.35;;
37305;SDS011;23193;42.656;21.170;2022-07-29T10:59:44;14.15;;;6.53;;
37305;SDS011;23193;42.656;21.170;2022-07-29T11:07:22;9.10;;;4.57;;
37305;SDS011;23193;42.656;21.170;2022-07-29T11:15:02;8.27;;;4.70;;
37305;SDS011;23193;42.656;21.170;2022-07-29T11:17:31;14.82;;;5.32;;
37305;SDS011;23193;42.656;21.170;2022-07-29T11:23:01;9.27;;;5.47;;
37305;SDS011;23193;42.656;21.170;2022-07-29T11:25:27;9.20;;;5.03;;
37305;SDS011;23193;42.656;21.170;2022-07-29T11:27:54;7.05;;;4.88;;
37305;SDS011;23193;42.656;21.170;2022-07-29T11:30:50;10.35;;;4.93;;
37305;SDS011;23193;42.656;21.170;2022-07-29T11:36:07;9.27;;;5.25;;
37305;SDS011;23193;42.656;21.170;2022-07-29T11:38:34;11.55;;;5.50;;
37305;SDS011;23193;42.656;21.170;2022-07-29T11:41:19;6.53;;;4.50;;
37305;SDS011;23193;42.656;21.170;2022-07-29T11:46:18;8.23;;;5.00;;
37305;SDS011;23193;42.656;21.170;2022-07-29T11:48:44;9.13;;;4.63;;
37305;SDS011;23193;42.656;21.170;2022-07-29T11:51:10;10.23;;;5.32;;
37305;SDS011;23193;42.656;21.170;2022-07-29T11:53:37;10.82;;;4.88;;
37305;SDS011;23193;42.656;21.170;2022-07-29T11:56:12;5.40;;;4.45;;
37305;SDS011;23193;42.656;21.170;2022-07-29T11:58:39;12.25;;;4.47;;
37305;SDS011;23193;42.656;21.170;2022-07-29T12:01:05;6.90;;;4.25;;
37305;SDS011;23193;42.656;21.170;2022-07-29T12:03:31;7.45;;;4.80;;
37305;SDS011;23193;42.656;21.170;2022-07-29T12:05:58;8.98;;;5.07;;
37305;SDS011;23193;42.656;21.170;2022-07-29T12:08:24;7.43;;;4.80;;
37305;SDS011;23193;42.656;21.170;2022-07-29T12:10:51;13.30;;;5.53;;
37305;SDS011;23193;42.656;21.170;2022-07-29T12:13:18;26.75;;;9.48;;
37305;SDS011;23193;42.656;21.170;2022-07-29T12:15:51;13.43;;;7.60;;
37305;SDS011;23193;42.656;21.170;2022-07-29T12:18:19;11.88;;;5.07;;
37305;SDS011;23193;42.656;21.170;2022-07-29T12:20:45;6.93;;;4.70;;
37305;SDS011;23193;42.656;21.170;2022-07-29T12:23:12;8.18;;;4.10;;
37305;SDS011;23193;42.656;21.170;2022-07-29T12:25:38;9.23;;;5.10;;
37305;SDS011;23193;42.656;21.170;2022-07-29T12:28:09;9.40;;;4.88;;
37305;SDS011;23193;42.656;21.170;2022-07-29T12:30:39;10.82;;;6.53;;
37305;SDS011;23193;42.656;21.170;2022-07-29T12:33:16;10.15;;;5.10;;
37305;SDS011;23193;42.656;21.170;2022-07-29T12:35:44;8.25;;;5.25;;
37305;SDS011;23193;42.656;21.170;2022-07-29T12:38:11;8.75;;;5.20;;
37305;SDS011;23193;42.656;21.170;2022-07-29T12:40:37;11.95;;;4.85;;
37305;SDS011;23193;42.656;21.170;2022-07-29T12:45:45;8.88;;;5.07;;
37305;SDS011;23193;42.656;21.170;2022-07-29T12:48:11;11.50;;;5.88;;
37305;SDS011;23193;42.656;21.170;2022-07-29T12:50:54;10.27;;;5.63;;
37305;SDS011;23193;42.656;21.170;2022-07-29T12:53:20;12.77;;;5.40;;
37305;SDS011;23193;42.656;21.170;2022-07-29T12:55:47;7.00;;;5.00;;
37305;SDS011;23193;42.656;21.170;2022-07-29T13:01:12;10.75;;;5.15;;
37305;SDS011;23193;42.656;21.170;2022-07-29T13:06:26;11.05;;;5.30;;
37305;SDS011;23193;42.656;21.170;2022-07-29T13:11:35;8.25;;;5.80;;
37305;SDS011;23193;42.656;21.170;2022-07-29T13:14:02;6.53;;;4.30;;
37305;SDS011;23193;42.656;21.170;2022-07-29T13:16:28;8.15;;;4.10;;
37305;SDS011;23193;42.656;21.170;2022-07-29T13:19:07;10.73;;;4.85;;
37305;SDS011;23193;42.656;21.170;2022-07-29T13:21:34;14.60;;;5.07;;
37305;SDS011;23193;42.656;21.170;2022-07-29T13:24:00;8.15;;;4.63;;
37305;SDS011;23193;42.656;21.170;2022-07-29T13:26:26;8.00;;;4.10;;
37305;SDS011;23193;42.656;21.170;2022-07-29T13:28:54;10.20;;;4.93;;
37305;SDS011;23193;42.656;21.170;2022-07-29T13:31:20;8.95;;;4.55;;
37305;SDS011;23193;42.656;21.170;2022-07-29T13:33:47;16.83;;;4.85;;
37305;SDS011;23193;42.656;21.170;2022-07-29T13:36:13;10.07;;;5.15;;
37305;SDS011;23193;42.656;21.170;2022-07-29T13:38:39;15.93;;;5.53;;
37305;SDS011;23193;42.656;21.170;2022-07-29T13:41:05;14.50;;;4.03;;
37305;SDS011;23193;42.656;21.170;2022-07-29T13:43:31;10.70;;;4.35;;
37305;SDS011;23193;42.656;21.170;2022-07-29T13:45:57;11.43;;;4.60;;
37305;SDS011;23193;42.656;21.170;2022-07-29T13:48:23;12.55;;;4.97;;
37305;SDS011;23193;42.656;21.170;2022-07-29T13:50:49;11.73;;;4.65;;
37305;SDS011;23193;42.656;21.170;2022-07-29T13:53:15;9.38;;;4.53;;
37305;SDS011;23193;42.656;21.170;2022-07-29T13:55:41;9.48;;;4.43;;
37305;SDS011;23193;42.656;21.170;2022-07-29T13:58:07;8.02;;;4.10;;
37305;SDS011;23193;42.656;21.170;2022-07-29T14:00:33;8.15;;;4.65;;
37305;SDS011;23193;42.656;21.170;2022-07-29T14:03:00;6.28;;;4.13;;
37305;SDS011;23193;42.656;21.170;2022-07-29T14:05:26;12.90;;;4.72;;
37305;SDS011;23193;42.656;21.170;2022-07-29T14:07:52;7.70;;;4.07;;
37305;SDS011;23193;42.656;21.170;2022-07-29T14:10:18;8.07;;;3.75;;
37305;SDS011;23193;42.656;21.170;2022-07-29T14:12:44;13.82;;;4.63;;
37305;SDS011;23193;42.656;21.170;2022-07-29T14:15:10;8.32;;;3.83;;
37305;SDS011;23193;42.656;21.170;2022-07-29T14:17:36;6.82;;;3.58;;
37305;SDS011;23193;42.656;21.170;2022-07-29T14:20:02;14.85;;;4.28;;
37305;SDS011;23193;42.656;21.170;2022-07-29T14:22:28;6.80;;;3.85;;
37305;SDS011;23193;42.656;21.170;2022-07-29T14:24:54;4.35;;;3.42;;
37305;SDS011;23193;42.656;21.170;2022-07-29T14:27:21;11.18;;;4.55;;
37305;SDS011;23193;42.656;21.170;2022-07-29T14:29:47;7.35;;;4.32;;
37305;SDS011;23193;42.656;21.170;2022-07-29T14:32:13;6.47;;;4.53;;
37305;SDS011;23193;42.656;21.170;2022-07-29T14:34:39;12.18;;;4.55;;
37305;SDS011;23193;42.656;21.170;2022-07-29T14:37:05;8.77;;;5.20;;
37305;SDS011;23193;42.656;21.170;2022-07-29T14:39:32;8.48;;;4.90;;
37305;SDS011;23193;42.656;21.170;2022-07-29T14:41:58;8.77;;;4.80;;
37305;SDS011;23193;42.656;21.170;2022-07-29T14:44:24;10.20;;;4.50;;
37305;SDS011;23193;42.656;21.170;2022-07-29T14:46:55;9.82;;;4.10;;
37305;SDS011;23193;42.656;21.170;2022-07-29T14:49:21;8.98;;;4.50;;
37305;SDS011;23193;42.656;21.170;2022-07-29T14:51:47;9.70;;;4.50;;
37305;SDS011;23193;42.656;21.170;2022-07-29T14:54:13;8.02;;;3.75;;
37305;SDS011;23193;42.656;21.170;2022-07-29T14:56:40;8.85;;;4.70;;
37305;SDS011;23193;42.656;21.170;2022-07-29T14:59:06;9.20;;;4.25;;
37305;SDS011;23193;42.656;21.170;2022-07-29T15:01:32;14.02;;;4.78;;
37305;SDS011;23193;42.656;21.170;2022-07-29T15:04:01;10.23;;;4.72;;
37305;SDS011;23193;42.656;21.170;2022-07-29T15:06:27;7.43;;;4.25;;
37305;SDS011;23193;42.656;21.170;2022-07-29T15:08:53;6.95;;;3.78;;
37305;SDS011;23193;42.656;21.170;2022-07-29T15:11:19;8.18;;;4.53;;
37305;SDS011;23193;42.656;21.170;2022-07-29T15:13:45;7.13;;;4.13;;
37305;SDS011;23193;42.656;21.170;2022-07-29T15:16:11;7.22;;;4.30;;
37305;SDS011;23193;42.656;21.170;2022-07-29T15:18:37;10.77;;;3.67;;
37305;SDS011;23193;42.656;21.170;2022-07-29T15:21:04;8.32;;;3.40;;
37305;SDS011;23193;42.656;21.170;2022-07-29T15:23:32;6.25;;;4.05;;
37305;SDS011;23193;42.656;21.170;2022-07-29T15:26:01;8.15;;;4.22;;
37305;SDS011;23193;42.656;21.170;2022-07-29T15:28:27;13.45;;;4.32;;
37305;SDS011;23193;42.656;21.170;2022-07-29T15:30:53;9.45;;;3.95;;